Time;durP1;ratioP1;P1;durP2;ratioP2;P2;SDS_P1;SDS_P2;PMS_P1;PMS_P2;Temp;Humidity;BMP_temperature;BMP_pressure;BME280_temperature;BME280_humidity;BME280_pressure;Samples;Min_cycle;Max_cycle;Signal;HPM_P1;HPM_P2
2022/02/04 00:21:21;;;;;;;16.65;12.82;;;5.50;99.90;;;;;;5046572;28;20039;-75
2022/02/04 00:23:38;;;;;;;15.93;11.93;;;5.50;99.90;;;;;;5052002;28;20119;-75
2022/02/04 00:33:42;;;;;;;15.02;10.68;;;5.70;99.90;;;;;;5052118;28;20524;-74
2022/02/04 00:36:20;;;;;;;14.95;10.40;;;5.70;99.90;;;;;;5050430;28;20138;-73
2022/02/04 00:38:50;;;;;;;13.10;10.18;;;5.80;99.90;;;;;;5052268;28;20040;-75
2022/02/04 00:41:20;;;;;;;13.68;9.85;;;5.90;99.90;;;;;;5051332;28;20029;-75
2022/02/04 00:43:48;;;;;;;12.38;9.68;;;5.90;99.90;;;;;;5052053;28;20037;-75
2022/02/04 00:46:20;;;;;;;12.70;9.60;;;5.90;99.90;;;;;;5051130;28;20032;-75
2022/02/04 00:51:33;;;;;;;15.38;9.23;;;5.90;99.90;;;;;;5045041;28;20477;-74
2022/02/04 00:54:19;;;;;;;10.23;8.07;;;6.00;99.90;;;;;;5051934;28;20025;-75
2022/02/04 00:57:38;;;;;;;11.23;8.70;;;6.10;99.90;;;;;;5051714;28;20076;-75
2022/02/04 01:26:42;;;;;;;9.35;6.30;;;6.10;99.90;;;;;;5051151;28;20417;-75
2022/02/04 01:29:09;;;;;;;8.63;6.45;;;6.10;99.90;;;;;;5051004;28;20033;-73
2022/02/04 01:31:34;;;;;;;7.45;5.65;;;6.10;99.90;;;;;;5051502;28;20032;-75
2022/02/04 01:34:00;;;;;;;6.85;5.68;;;6.20;99.90;;;;;;5050870;28;20112;-75
2022/02/04 01:36:26;;;;;;;7.63;5.72;;;6.20;99.90;;;;;;5050228;28;20595;-75
2022/02/04 01:38:52;;;;;;;7.72;5.95;;;6.20;99.90;;;;;;5051149;28;20033;-75
2022/02/04 01:41:17;;;;;;;6.90;5.80;;;6.30;99.90;;;;;;5050163;28;20057;-76
2022/02/04 01:43:43;;;;;;;6.70;5.05;;;6.30;99.90;;;;;;5051317;28;20064;-75
2022/02/04 01:46:11;;;;;;;6.40;5.20;;;6.30;99.90;;;;;;5050548;28;20466;-73
2022/02/04 01:48:39;;;;;;;6.60;5.38;;;6.20;99.90;;;;;;5054026;28;20533;-74
2022/02/04 01:51:06;;;;;;;7.00;5.18;;;6.30;99.90;;;;;;5035372;28;20033;-75
2022/02/04 01:53:32;;;;;;;7.07;5.40;;;6.40;99.90;;;;;;5034819;28;20033;-75
2022/02/04 01:56:06;;;;;;;7.75;5.30;;;6.30;99.90;;;;;;5045589;28;20049;-75
2022/02/04 01:58:33;;;;;;;6.72;5.03;;;6.30;99.90;;;;;;5038644;28;20081;-75
2022/02/04 02:00:58;;;;;;;7.32;5.00;;;6.40;99.90;;;;;;5040471;28;20453;-75
2022/02/04 02:03:25;;;;;;;7.03;5.05;;;6.40;99.90;;;;;;5053438;28;20035;-74
2022/02/04 02:05:53;;;;;;;6.72;5.35;;;6.40;99.90;;;;;;5054671;28;20037;-75
2022/02/04 02:08:20;;;;;;;11.88;5.88;;;6.40;99.90;;;;;;5054085;28;20028;-75
2022/02/04 02:10:47;;;;;;;8.10;5.40;;;6.50;99.90;;;;;;5055197;28;20025;-74
2022/02/04 02:47:34;;;;;;;7.45;5.28;;;6.20;99.90;;;;;;5053513;28;20449;-73
2022/02/04 02:50:16;;;;;;;7.13;5.25;;;6.10;99.90;;;;;;5054234;28;20029;-74
2022/02/04 02:55:38;;;;;;;7.88;6.05;;;6.00;99.90;;;;;;5052903;28;20134;-74
2022/02/04 03:00:43;;;;;;;7.80;5.65;;;6.00;99.90;;;;;;5053354;28;20021;-74
2022/02/04 03:03:11;;;;;;;7.78;5.63;;;6.00;99.90;;;;;;5053902;28;20029;-72
2022/02/04 03:05:36;;;;;;;8.07;5.35;;;6.00;99.90;;;;;;5053450;28;20040;-74
2022/02/04 03:08:03;;;;;;;7.30;5.75;;;6.00;99.90;;;;;;5053641;28;20033;-76
2022/02/04 03:10:29;;;;;;;7.45;5.97;;;6.00;99.90;;;;;;5051655;28;20198;-76
2022/02/04 03:12:55;;;;;;;9.35;7.05;;;6.00;99.90;;;;;;5053583;28;20052;-76
2022/02/04 03:15:21;;;;;;;7.30;5.50;;;5.90;99.90;;;;;;5052869;28;20029;-76
2022/02/04 03:17:55;;;;;;;6.90;5.43;;;5.90;99.90;;;;;;5053510;28;20138;-76
2022/02/04 03:20:21;;;;;;;6.82;5.82;;;5.90;99.90;;;;;;5053115;28;20043;-76
2022/02/04 03:22:48;;;;;;;8.27;6.43;;;5.90;99.90;;;;;;5053484;28;20032;-76
2022/02/04 03:25:15;;;;;;;8.00;5.93;;;5.90;99.90;;;;;;5052288;28;20037;-74
2022/02/04 03:27:48;;;;;;;7.55;5.60;;;5.90;99.90;;;;;;5053377;28;20354;-75
2022/02/04 03:30:32;;;;;;;9.65;6.07;;;5.90;99.90;;;;;;5052659;28;20036;-74
2022/02/04 03:33:03;;;;;;;9.13;6.45;;;5.90;99.90;;;;;;5053344;28;20104;-75
2022/02/04 03:35:29;;;;;;;6.93;5.75;;;5.90;99.90;;;;;;5052428;28;20075;-76
2022/02/04 03:37:55;;;;;;;7.90;6.35;;;5.80;99.90;;;;;;5049900;28;20549;-76
2022/02/04 03:40:23;;;;;;;8.13;6.38;;;5.80;99.90;;;;;;5052544;28;20029;-76
2022/02/04 03:42:49;;;;;;;8.25;6.30;;;5.70;99.90;;;;;;5052502;28;20170;-75
2022/02/04 03:45:16;;;;;;;10.02;6.68;;;5.70;99.90;;;;;;5051431;28;20469;-75
2022/02/04 03:47:42;;;;;;;9.90;6.78;;;5.70;99.90;;;;;;5051527;28;20036;-76
2022/02/04 03:50:09;;;;;;;8.10;6.28;;;5.60;99.90;;;;;;5052252;28;20404;-76
2022/02/04 03:52:37;;;;;;;8.48;6.47;;;5.60;99.90;;;;;;5051060;28;20082;-76
2022/02/04 03:55:03;;;;;;;8.15;6.32;;;5.60;99.90;;;;;;5051626;28;20021;-76
2022/02/04 03:57:28;;;;;;;9.63;7.32;;;5.60;99.90;;;;;;5050921;28;20059;-76
2022/02/04 03:59:54;;;;;;;8.23;6.75;;;5.60;99.90;;;;;;5048903;28;20474;-76
2022/02/04 04:02:19;;;;;;;7.97;6.40;;;5.60;99.90;;;;;;5050763;28;20025;-76
2022/02/04 04:04:45;;;;;;;8.93;6.93;;;5.60;99.90;;;;;;5051449;28;20025;-74
2022/02/04 04:07:11;;;;;;;10.15;6.50;;;5.60;99.90;;;;;;5051330;28;20029;-73
2022/02/04 04:09:42;;;;;;;7.53;6.00;;;5.60;99.90;;;;;;5049319;28;20106;-73
2022/02/04 04:12:09;;;;;;;7.70;6.57;;;5.60;99.90;;;;;;5051439;28;20386;-74
2022/02/04 04:14:34;;;;;;;8.85;7.03;;;5.60;99.90;;;;;;5048132;28;20028;-74
2022/02/04 04:17:00;;;;;;;9.65;6.63;;;5.50;99.90;;;;;;5051549;28;20021;-74
2022/02/04 04:19:26;;;;;;;10.73;6.80;;;5.60;99.90;;;;;;5050438;28;20029;-73
2022/02/04 04:21:51;;;;;;;9.55;6.25;;;5.50;99.90;;;;;;5051194;28;20052;-73
2022/02/04 04:24:17;;;;;;;10.57;6.57;;;5.50;99.90;;;;;;5048803;28;20033;-74
2022/02/04 04:26:43;;;;;;;10.27;6.88;;;5.60;99.90;;;;;;5051211;28;20029;-74
2022/02/04 04:29:09;;;;;;;8.32;6.35;;;5.50;99.90;;;;;;5050785;28;20033;-73
2022/02/04 04:31:35;;;;;;;8.18;6.35;;;5.50;99.90;;;;;;5050185;28;20025;-74
2022/02/04 04:34:01;;;;;;;8.05;6.30;;;5.60;99.90;;;;;;5051347;28;20399;-73
2022/02/04 04:36:27;;;;;;;9.05;7.18;;;5.50;99.90;;;;;;5049893;28;20106;-74
2022/02/04 04:39:00;;;;;;;9.15;6.68;;;5.40;99.90;;;;;;5050892;28;20194;-74
2022/02/04 04:41:56;;;;;;;9.35;6.40;;;5.40;99.90;;;;;;5050128;28;20040;-74
2022/02/04 04:44:34;;;;;;;7.78;6.00;;;5.40;99.90;;;;;;5050115;28;20391;-72
2022/02/04 05:30:15;;;;;;;9.57;7.07;;;5.40;99.90;;;;;;5050110;28;20032;-72
2022/02/04 05:32:42;;;;;;;9.98;7.40;;;5.40;99.90;;;;;;5051760;28;20041;-73
2022/02/04 05:35:09;;;;;;;11.13;6.88;;;5.40;99.90;;;;;;5050959;28;20083;-73
2022/02/04 05:37:40;;;;;;;8.55;6.75;;;5.40;99.90;;;;;;5050354;28;20029;-74
2022/02/04 05:40:11;;;;;;;7.38;6.30;;;5.40;99.90;;;;;;5051191;28;20091;-74
2022/02/04 05:42:42;;;;;;;7.85;6.30;;;5.40;99.90;;;;;;5050338;28;20037;-73
2022/02/04 05:45:17;;;;;;;7.82;6.35;;;5.30;99.90;;;;;;5051248;28;20036;-74
2022/02/04 05:47:46;;;;;;;8.05;6.03;;;5.30;99.90;;;;;;5051247;28;20033;-73
2022/02/04 05:53:13;;;;;;;7.40;6.07;;;5.30;99.90;;;;;;5050816;28;20501;-73
2022/02/04 06:11:11;;;;;;;10.93;6.28;;;5.30;99.90;;;;;;5051019;28;20059;-73
2022/02/04 06:22:18;;;;;;;11.13;7.70;;;5.20;99.90;;;;;;5050075;28;20115;-74
2022/02/04 06:24:45;;;;;;;12.15;7.07;;;5.10;99.90;;;;;;5048273;28;20035;-73
2022/02/04 06:27:10;;;;;;;10.48;7.88;;;5.10;99.90;;;;;;5048774;28;20033;-73
2022/02/04 06:29:37;;;;;;;10.38;7.70;;;5.00;99.90;;;;;;5048915;28;20037;-74
2022/02/04 06:32:03;;;;;;;13.00;7.63;;;5.00;99.90;;;;;;5049586;28;20028;-74
2022/02/04 06:34:29;;;;;;;10.35;7.80;;;4.90;99.90;;;;;;5051374;28;20036;-74
2022/02/04 06:36:54;;;;;;;10.93;8.40;;;4.90;99.90;;;;;;5053601;28;20385;-74
2022/02/04 06:39:20;;;;;;;11.95;8.40;;;4.90;99.90;;;;;;5053319;28;20041;-73
2022/02/04 06:41:46;;;;;;;13.30;8.35;;;4.80;99.90;;;;;;5053837;28;20116;-75
2022/02/04 06:44:12;;;;;;;11.05;8.50;;;4.80;99.90;;;;;;5053616;28;20061;-77
2022/02/04 06:46:38;;;;;;;12.70;7.97;;;4.70;99.90;;;;;;5056432;28;20058;-74
2022/02/04 06:49:04;;;;;;;10.23;7.97;;;4.70;99.90;;;;;;5053386;28;20068;-74
2022/02/04 06:51:29;;;;;;;12.75;8.18;;;4.60;99.90;;;;;;5051609;28;20060;-75
2022/02/04 06:53:55;;;;;;;13.20;8.82;;;4.70;99.90;;;;;;5051019;28;20112;-74
2022/02/04 06:56:21;;;;;;;13.52;9.13;;;4.60;99.90;;;;;;5051521;28;20084;-75
2022/02/04 06:58:47;;;;;;;13.50;9.45;;;4.70;99.90;;;;;;5053790;28;20044;-73
2022/02/04 07:01:12;;;;;;;13.73;9.45;;;4.60;99.90;;;;;;5053164;28;20025;-73
2022/02/04 07:03:38;;;;;;;12.63;8.73;;;4.60;99.90;;;;;;5052463;28;20119;-77
2022/02/04 07:06:05;;;;;;;12.55;8.68;;;4.60;99.90;;;;;;5052708;28;20033;-75
2022/02/04 07:08:47;;;;;;;14.30;9.40;;;4.60;99.90;;;;;;5051587;28;20117;-75
2022/02/04 07:11:34;;;;;;;13.63;9.20;;;4.60;99.90;;;;;;5051574;28;20532;-75
2022/02/04 07:14:10;;;;;;;13.00;9.65;;;4.60;99.90;;;;;;5051206;28;20028;-75
2022/02/04 07:21:47;;;;;;;12.55;9.20;;;4.70;99.90;;;;;;5050139;28;20040;-75
2022/02/04 07:24:12;;;;;;;11.00;8.88;;;4.60;99.90;;;;;;5052101;28;20025;-75
2022/02/04 07:26:38;;;;;;;14.32;9.25;;;4.70;99.90;;;;;;5051054;28;20040;-75
2022/02/04 07:29:04;;;;;;;13.25;9.60;;;4.60;99.90;;;;;;5051987;28;20044;-74
2022/02/04 07:31:34;;;;;;;13.32;9.32;;;4.70;99.90;;;;;;5051261;28;20021;-75
2022/02/04 07:34:34;;;;;;;12.68;9.63;;;4.60;99.90;;;;;;5048112;28;20021;-76
2022/02/04 07:42:28;;;;;;;12.60;9.15;;;4.70;99.90;;;;;;5049340;28;20453;-71
2022/02/04 07:44:53;;;;;;;10.60;8.40;;;4.70;99.90;;;;;;5051150;28;20061;-77
2022/02/04 07:47:19;;;;;;;12.73;8.90;;;4.70;99.90;;;;;;5050814;28;20464;-70
2022/02/04 07:49:45;;;;;;;12.95;8.75;;;4.80;99.90;;;;;;5051100;28;20104;-71
2022/02/04 07:52:11;;;;;;;10.70;8.80;;;4.80;99.90;;;;;;5051533;28;20032;-71
2022/02/04 07:54:36;;;;;;;13.85;9.40;;;4.80;99.90;;;;;;5050734;28;20021;-71
2022/02/04 07:57:02;;;;;;;15.73;9.95;;;4.90;99.90;;;;;;5051597;28;20049;-71
2022/02/04 07:59:28;;;;;;;13.18;9.95;;;4.90;99.90;;;;;;5051342;28;20120;-71
2022/02/04 08:01:53;;;;;;;17.40;9.35;;;5.00;99.90;;;;;;5052754;28;20104;-71
2022/02/04 08:04:27;;;;;;;11.98;8.98;;;5.00;99.90;;;;;;5050207;28;20029;-70
2022/02/04 08:06:58;;;;;;;13.02;9.32;;;5.00;99.90;;;;;;5052310;28;20555;-72
2022/02/04 08:28:14;;;;;;;15.00;11.10;;;4.90;99.90;;;;;;5051755;28;20091;-80
2022/02/04 08:30:58;;;;;;;17.27;11.40;;;4.80;99.90;;;;;;5053004;28;20037;-72
2022/02/04 08:54:05;;;;;;;12.85;8.60;;;5.10;99.90;;;;;;5040733;28;20535;-69
2022/02/04 08:56:55;;;;;;;11.90;8.57;;;5.30;99.90;;;;;;5045704;28;20045;-71
2022/02/04 08:59:29;;;;;;;10.20;7.85;;;5.30;99.90;;;;;;5049337;28;20288;-70
2022/02/04 09:02:03;;;;;;;11.48;7.75;;;5.40;99.90;;;;;;5052160;28;20028;-73
2022/02/04 09:04:37;;;;;;;10.95;7.32;;;5.60;99.90;;;;;;5052662;28;20053;-73
2022/02/04 09:07:09;;;;;;;11.40;7.22;;;5.60;99.90;;;;;;5052253;28;20114;-72
2022/02/04 09:10:00;;;;;;;11.73;7.85;;;5.70;99.90;;;;;;5058267;28;20028;-75
2022/02/04 09:22:50;;;;;;;8.48;6.53;;;6.50;99.90;;;;;;5052499;28;20110;-71
2022/02/04 09:25:15;;;;;;;11.07;6.15;;;6.60;99.90;;;;;;5052664;28;20067;-72
2022/02/04 09:27:41;;;;;;;8.88;6.30;;;6.80;99.90;;;;;;5050031;28;20079;-72
2022/02/04 09:30:11;;;;;;;8.07;6.25;;;6.80;99.90;;;;;;5049973;28;20044;-72
2022/02/04 09:32:37;;;;;;;8.83;6.40;;;6.80;99.90;;;;;;5049507;28;20036;-72
2022/02/04 09:35:12;;;;;;;9.23;5.68;;;6.90;99.90;;;;;;5050262;28;20025;-72
2022/02/04 09:37:38;;;;;;;7.75;5.00;;;6.90;99.90;;;;;;5047740;28;20179;-72
2022/02/04 09:40:06;;;;;;;7.05;3.65;;;6.90;99.90;;;;;;5050766;28;20041;-72
2022/02/04 09:42:32;;;;;;;6.20;4.55;;;7.00;99.90;;;;;;5050068;28;20049;-72
2022/02/04 09:44:59;;;;;;;5.60;3.30;;;6.90;99.90;;;;;;5051325;28;20029;-72
2022/02/04 09:47:32;;;;;;;5.63;3.88;;;6.80;99.90;;;;;;5050321;28;20056;-70
2022/02/04 09:50:00;;;;;;;8.63;3.05;;;6.70;99.90;;;;;;5051517;28;20037;-72
2022/02/04 10:06:59;;;;;;;4.63;3.03;;;7.00;99.90;;;;;;5031191;28;20032;-72
2022/02/04 10:09:27;;;;;;;5.43;3.67;;;7.10;99.90;;;;;;5044044;28;20437;-72
2022/02/04 10:17:07;;;;;;;5.05;3.70;;;7.30;99.90;;;;;;5054624;28;20107;-72
2022/02/04 10:22:06;;;;;;;3.65;3.22;;;7.40;99.90;;;;;;5054300;28;20025;-72
2022/02/04 10:24:33;;;;;;;5.05;3.72;;;7.60;99.90;;;;;;5053111;28;20067;-72
2022/02/04 10:27:20;;;;;;;4.00;2.60;;;7.70;99.90;;;;;;5052955;28;20428;-73
2022/02/04 10:29:55;;;;;;;3.58;2.60;;;7.80;99.90;;;;;;5053565;28;20079;-72
2022/02/04 10:32:35;;;;;;;3.08;2.08;;;7.90;99.90;;;;;;5054396;28;20091;-72
2022/02/04 10:35:12;;;;;;;;;;;8.00;99.90;;;;;;5054412;28;20029;-72
2022/02/04 10:37:55;;;;;;;5.93;3.15;;;8.10;99.90;;;;;;5053352;28;19979;-72
2022/02/04 10:47:04;;;;;;;7.45;2.47;;;8.10;99.90;;;;;;5034427;28;20148;-72
2022/02/04 11:00:14;;;;;;;3.85;2.70;;;8.40;99.90;;;;;;5053136;28;20033;-72
2022/02/04 11:05:21;;;;;;;2.22;1.30;;;8.70;99.90;;;;;;5053957;28;20025;-72
2022/02/04 11:08:22;;;;;;;4.95;1.38;;;8.70;99.90;;;;;;5052967;28;20037;-72
2022/02/04 11:33:36;;;;;;;7.57;2.95;;;8.70;99.90;;;;;;5052491;28;20063;-72
2022/02/04 11:35:41;;;;;;;3.58;1.88;;;8.70;99.90;;;;;;5052768;28;20101;-73
2022/02/04 11:55:00;;;;;;;;;;;8.40;99.90;;;;;;5053617;28;20040;-73
2022/02/04 11:57:37;;;;;;;2.28;1.42;;;8.50;99.90;;;;;;5051810;28;20019;-71
2022/02/04 12:00:19;;;;;;;2.38;1.30;;;8.40;99.90;;;;;;5052884;28;20040;-75
2022/02/04 12:02:46;;;;;;;1.50;1.30;;;8.50;99.90;;;;;;5051048;28;20458;-72
2022/02/04 12:05:18;;;;;;;2.17;1.13;;;8.60;99.90;;;;;;5052094;28;20036;-72
2022/02/04 12:07:56;;;;;;;3.05;1.33;;;8.60;99.90;;;;;;5051059;28;20029;-72
2022/02/04 12:10:27;;;;;;;1.67;1.40;;;8.60;99.90;;;;;;5052334;28;20108;-73
2022/02/04 12:12:55;;;;;;;2.40;1.63;;;8.60;99.90;;;;;;5050655;28;20094;-74
2022/02/04 12:15:46;;;;;;;2.83;1.00;;;8.60;99.90;;;;;;5051933;28;20458;-71
2022/02/04 12:18:20;;;;;;;1.50;1.10;;;8.50;99.90;;;;;;5052651;28;20481;-70
2022/02/04 12:20:46;;;;;;;2.85;0.90;;;8.40;99.90;;;;;;5051740;28;20075;-71
2022/02/04 12:23:27;;;;;;;1.13;0.88;;;8.30;99.90;;;;;;5052138;28;20052;-71
2022/02/04 12:26:04;;;;;;;1.30;0.70;;;8.20;99.90;;;;;;5051916;28;20029;-71
2022/02/04 12:28:48;;;;;;;2.80;0.75;;;8.20;99.90;;;;;;5051744;28;20422;-76
2022/02/04 12:31:33;;;;;;;1.38;0.82;;;8.10;99.90;;;;;;5052612;28;20106;-74
2022/02/04 12:34:01;;;;;;;1.55;0.93;;;8.10;99.90;;;;;;5052248;28;20033;-72
2022/02/04 12:36:41;;;;;;;1.25;0.95;;;8.10;99.90;;;;;;5051759;28;20049;-70
2022/02/04 12:39:13;;;;;;;2.03;1.00;;;8.10;99.90;;;;;;5051995;28;20136;-70
2022/02/04 12:41:43;;;;;;;1.13;0.90;;;8.10;99.90;;;;;;5050931;28;20033;-70
2022/02/04 12:44:18;;;;;;;1.83;1.00;;;8.20;99.90;;;;;;5037548;28;20540;-71
2022/02/04 12:46:46;;;;;;;1.00;0.82;;;8.40;99.90;;;;;;5051157;28;20029;-70
2022/02/04 12:49:14;;;;;;;1.65;0.80;;;8.50;99.90;;;;;;5051742;28;20037;-70
2022/02/04 12:51:57;;;;;;;3.05;0.57;;;8.50;99.90;;;;;;5050710;28;20033;-69
2022/02/04 12:54:42;;;;;;;1.35;0.88;;;8.50;99.90;;;;;;5053789;28;20037;-71
2022/02/04 13:07:58;;;;;;;1.30;1.05;;;8.30;99.90;;;;;;5049709;28;20179;-69
2022/02/04 13:10:28;;;;;;;1.92;0.63;;;8.30;99.90;;;;;;5051349;28;20032;-69
2022/02/04 13:12:58;;;;;;;2.90;1.45;;;8.40;99.90;;;;;;5051183;28;20059;-70
2022/02/04 13:15:24;;;;;;;2.65;0.80;;;8.40;99.90;;;;;;5048710;28;20098;-71
2022/02/04 13:17:51;;;;;;;2.83;1.02;;;8.30;99.90;;;;;;5049974;28;20616;-71
2022/02/04 13:20:21;;;;;;;1.55;1.30;;;8.30;99.90;;;;;;5050851;28;20111;-70
2022/02/04 13:22:53;;;;;;;1.33;1.10;;;8.20;99.90;;;;;;5050585;28;20107;-70
2022/02/04 13:25:24;;;;;;;2.40;1.17;;;8.20;99.90;;;;;;5051662;28;20054;-71
2022/02/04 13:28:17;;;;;;;3.90;1.10;;;8.20;99.90;;;;;;5050001;28;20292;-69
2022/02/04 13:31:01;;;;;;;1.73;1.25;;;8.20;99.90;;;;;;5050862;28;20048;-67
2022/02/04 13:33:32;;;;;;;3.95;1.10;;;8.10;99.90;;;;;;5031700;28;20033;-68
2022/02/04 13:36:05;;;;;;;1.35;1.17;;;8.10;99.90;;;;;;5036809;28;20086;-69
2022/02/04 13:38:43;;;;;;;1.73;1.20;;;8.00;99.90;;;;;;5051078;28;20493;-69
2022/02/04 13:43:43;;;;;;;2.38;1.33;;;7.90;99.90;;;;;;5052786;28;20028;-69
2022/02/04 13:49:01;;;;;;;2.90;1.45;;;7.90;99.90;;;;;;5054517;28;20123;-66
2022/02/04 13:52:04;;;;;;;2.08;1.20;;;7.90;99.90;;;;;;5054870;28;20033;-69
2022/02/04 14:00:08;;;;;;;0.88;0.80;;;8.00;99.90;;;;;;5052946;28;20032;-69
2022/02/04 14:02:41;;;;;;;2.08;1.25;;;8.00;99.90;;;;;;5051102;28;20025;-68
2022/02/04 14:05:08;;;;;;;1.50;1.00;;;8.00;99.90;;;;;;5053705;28;20383;-68
2022/02/04 14:07:42;;;;;;;1.08;0.93;;;8.00;99.90;;;;;;5053293;28;20083;-69
2022/02/04 14:10:30;;;;;;;2.80;1.10;;;7.90;99.90;;;;;;5054034;28;20571;-65
2022/02/04 14:13:02;;;;;;;4.68;1.00;;;7.80;99.90;;;;;;5051229;28;20028;-66
2022/02/04 14:15:29;;;;;;;5.15;1.20;;;7.80;99.90;;;;;;5053479;28;20025;-69
2022/02/04 14:17:57;;;;;;;1.40;1.15;;;7.80;99.90;;;;;;5053786;28;20060;-69
2022/02/04 14:20:23;;;;;;;1.25;0.95;;;7.80;99.90;;;;;;5053551;28;20025;-69
2022/02/04 14:22:49;;;;;;;1.02;0.90;;;7.80;99.90;;;;;;5052477;28;20116;-77
2022/02/04 14:25:14;;;;;;;1.92;1.00;;;7.80;99.90;;;;;;5053497;28;20108;-68
2022/02/04 14:27:42;;;;;;;1.27;1.00;;;7.90;99.90;;;;;;5052722;28;20051;-73
2022/02/04 14:30:16;;;;;;;3.55;0.85;;;7.80;99.90;;;;;;5052869;28;20163;-72
2022/02/04 14:32:58;;;;;;;1.23;1.00;;;7.80;99.90;;;;;;5052633;28;20036;-69
2022/02/04 14:35:41;;;;;;;2.50;1.10;;;7.80;99.90;;;;;;5052092;28;20478;-67
2022/02/04 14:54:33;;;;;;;3.60;0.77;;;7.70;99.90;;;;;;5051778;28;20032;-71
2022/02/04 15:02:29;;;;;;;0.98;0.73;;;7.60;99.90;;;;;;5033905;28;20041;-68
2022/02/04 15:04:55;;;;;;;0.98;0.68;;;7.50;99.90;;;;;;5033397;28;20080;-68
2022/02/04 15:07:30;;;;;;;3.88;0.93;;;7.50;99.90;;;;;;5036944;28;20044;-68
2022/02/04 15:09:56;;;;;;;2.70;0.80;;;7.50;99.90;;;;;;5053203;28;20047;-68
2022/02/04 15:12:23;;;;;;;2.95;1.00;;;7.40;99.90;;;;;;5053893;28;20056;-68
2022/02/04 15:14:49;;;;;;;2.60;0.80;;;7.40;99.90;;;;;;5053187;28;20037;-69
2022/02/04 15:17:14;;;;;;;1.50;0.80;;;7.40;99.90;;;;;;5053384;28;20029;-69
2022/02/04 15:19:42;;;;;;;1.13;0.77;;;7.30;99.90;;;;;;5052881;28;20036;-69
2022/02/04 15:22:09;;;;;;;0.95;0.85;;;7.40;99.90;;;;;;5053862;28;20037;-69
2022/02/04 15:24:36;;;;;;;1.63;0.88;;;7.40;99.90;;;;;;5052366;28;20037;-69
2022/02/04 15:27:03;;;;;;;1.58;0.65;;;7.40;99.90;;;;;;5053849;28;20032;-69
2022/02/04 15:29:31;;;;;;;0.68;0.40;;;7.40;99.90;;;;;;5053234;28;20474;-69
2022/02/04 15:31:59;;;;;;;0.55;0.45;;;7.30;99.90;;;;;;5053119;28;20087;-68
2022/02/04 15:34:26;;;;;;;0.77;0.40;;;7.30;99.90;;;;;;5053743;28;20086;-68
2022/02/04 15:36:52;;;;;;;0.68;0.50;;;7.30;99.90;;;;;;5052719;28;20057;-69
2022/02/04 15:39:23;;;;;;;0.88;0.40;;;7.30;99.90;;;;;;5052977;28;20051;-69
2022/02/04 15:41:54;;;;;;;7.22;0.60;;;7.30;99.90;;;;;;5052282;28;20529;-69
2022/02/04 16:04:47;;;;;;;1.25;0.70;;;7.30;99.90;;;;;;5051892;28;20033;-69
2022/02/04 16:07:18;;;;;;;1.65;0.57;;;7.30;99.90;;;;;;5052696;28;20060;-69
2022/02/04 16:09:48;;;;;;;0.98;0.50;;;7.20;99.90;;;;;;5052098;28;20039;-69
2022/02/04 16:12:29;;;;;;;2.53;0.57;;;7.20;99.90;;;;;;5052958;28;20029;-68
2022/02/04 16:15:10;;;;;;;0.57;0.45;;;7.20;99.90;;;;;;5050591;28;20485;-68
2022/02/04 16:17:37;;;;;;;0.70;0.60;;;7.20;99.90;;;;;;5052065;28;20429;-68
2022/02/04 16:25:17;;;;;;;2.95;0.63;;;7.10;99.90;;;;;;5052102;28;20029;-68
2022/02/04 16:30:11;;;;;;;2.97;0.60;;;7.00;99.90;;;;;;5042772;28;20033;-69
2022/02/04 16:32:36;;;;;;;1.42;0.82;;;7.00;99.90;;;;;;5051809;28;20112;-68
2022/02/04 16:35:04;;;;;;;1.17;0.63;;;7.00;99.90;;;;;;5052305;28;20431;-69
2022/02/04 16:37:36;;;;;;;0.65;0.50;;;7.00;99.90;;;;;;5046842;28;20536;-69
2022/02/04 16:40:16;;;;;;;2.10;1.10;;;7.00;99.90;;;;;;5033317;28;20116;-69
2022/02/04 16:42:43;;;;;;;0.80;0.50;;;7.00;99.90;;;;;;5039350;28;20025;-69
2022/02/04 16:45:10;;;;;;;0.80;0.68;;;6.90;99.90;;;;;;5052363;28;20104;-69
2022/02/04 16:47:36;;;;;;;0.70;0.70;;;6.90;99.90;;;;;;5049835;28;20021;-69
2022/02/04 16:50:02;;;;;;;1.45;0.70;;;6.90;99.90;;;;;;5035397;28;20072;-69
2022/02/04 16:52:31;;;;;;;1.15;0.60;;;7.00;99.90;;;;;;5050422;28;20032;-69
2022/02/04 16:54:58;;;;;;;1.48;0.57;;;6.90;99.90;;;;;;5049224;28;20626;-69
2022/02/04 16:57:24;;;;;;;1.02;0.47;;;6.90;99.90;;;;;;5050838;28;20336;-69
2022/02/04 16:59:56;;;;;;;1.40;0.80;;;6.90;99.90;;;;;;5036192;28;20034;-69
2022/02/04 17:02:22;;;;;;;0.60;0.60;;;6.90;99.90;;;;;;5031864;28;20032;-70
2022/02/04 17:04:49;;;;;;;1.65;0.68;;;6.90;99.90;;;;;;5039450;28;20024;-68
2022/02/04 17:07:19;;;;;;;0.70;0.50;;;6.90;99.90;;;;;;5051534;28;20033;-69
2022/02/04 17:09:48;;;;;;;0.60;0.55;;;6.90;99.90;;;;;;5046594;28;20094;-69
2022/02/04 17:12:17;;;;;;;1.10;0.90;;;6.90;99.90;;;;;;5051769;28;20029;-69
2022/02/04 17:14:43;;;;;;;2.42;0.52;;;6.90;99.90;;;;;;5042519;28;20276;-69
2022/02/04 17:17:09;;;;;;;0.82;0.50;;;6.90;99.90;;;;;;5035691;28;20032;-69
2022/02/04 17:19:44;;;;;;;1.17;0.55;;;6.90;99.90;;;;;;5038630;28;20037;-68
2022/02/04 17:22:12;;;;;;;2.22;0.55;;;6.90;99.90;;;;;;5031908;28;20378;-69
2022/02/04 17:24:38;;;;;;;3.15;0.50;;;6.90;99.90;;;;;;5030806;28;20104;-68
2022/02/04 17:27:04;;;;;;;1.08;0.60;;;7.00;99.90;;;;;;5031427;28;20034;-68
2022/02/04 17:29:30;;;;;;;3.15;0.82;;;7.00;99.90;;;;;;5042625;28;20091;-69
2022/02/04 17:31:57;;;;;;;8.82;2.58;;;7.00;99.90;;;;;;5050432;28;20588;-68
2022/02/04 17:34:23;;;;;;;0.77;0.60;;;7.00;99.90;;;;;;5051585;28;20056;-69
2022/02/04 17:36:49;;;;;;;0.98;0.57;;;7.00;99.90;;;;;;5047832;28;20058;-69
2022/02/04 17:39:21;;;;;;;0.80;0.50;;;6.90;99.90;;;;;;5049213;28;20048;-69
2022/02/04 17:41:50;;;;;;;0.98;0.60;;;6.90;99.90;;;;;;5069903;28;20106;-69
2022/02/04 17:44:18;;;;;;;0.93;0.60;;;6.90;99.90;;;;;;5051122;28;20033;-69
2022/02/04 17:46:46;;;;;;;0.70;0.70;;;6.90;99.90;;;;;;5047926;28;20607;-69
2022/02/04 17:49:21;;;;;;;1.10;0.73;;;6.90;99.90;;;;;;5039528;28;20032;-69
2022/02/04 17:51:55;;;;;;;3.28;1.08;;;7.00;99.90;;;;;;5050800;28;20052;-69
2022/02/04 17:55:27;;;;;;;1.27;0.90;;;7.00;99.90;;;;;;5050693;28;20037;-68
2022/02/04 17:57:20;;;;;;;1.00;0.70;;;7.00;99.90;;;;;;5050054;28;20049;-69
2022/02/04 18:07:36;;;;;;;0.93;0.55;;;7.00;99.90;;;;;;5051037;28;20035;-69
2022/02/04 18:10:04;;;;;;;0.63;0.52;;;7.00;99.90;;;;;;5050184;28;20029;-70
2022/02/04 18:12:35;;;;;;;1.10;0.80;;;7.00;99.90;;;;;;5050366;28;20036;-70
2022/02/04 18:15:01;;;;;;;0.95;0.80;;;7.00;99.90;;;;;;5050667;28;20057;-70
2022/02/04 18:17:28;;;;;;;1.65;0.90;;;6.90;99.90;;;;;;5050377;28;20033;-69
2022/02/04 18:19:54;;;;;;;0.82;0.60;;;6.90;99.90;;;;;;5037626;28;20033;-69
2022/02/04 18:22:20;;;;;;;2.70;0.90;;;6.80;99.90;;;;;;5031287;28;20052;-70
2022/02/04 18:24:46;;;;;;;0.90;0.70;;;6.80;99.90;;;;;;5030471;28;20431;-70
2022/02/04 18:27:12;;;;;;;2.63;0.80;;;6.70;99.90;;;;;;5033551;28;20032;-69
2022/02/04 18:29:46;;;;;;;1.40;0.80;;;6.80;99.90;;;;;;5052457;28;20094;-69
2022/02/04 18:32:13;;;;;;;0.82;0.68;;;6.80;99.90;;;;;;5054605;28;20035;-70
2022/02/04 18:34:38;;;;;;;0.60;0.60;;;6.70;99.90;;;;;;5054165;28;20482;-70
2022/02/04 18:37:05;;;;;;;1.98;0.95;;;6.70;99.90;;;;;;5054017;28;20059;-70
2022/02/04 18:44:44;;;;;;;2.03;1.00;;;6.50;99.90;;;;;;5053720;28;20064;-71
2022/02/04 18:47:23;;;;;;;1.77;1.10;;;6.50;99.90;;;;;;5054230;28;20086;-70
2022/02/04 18:49:56;;;;;;;1.65;1.05;;;6.50;99.90;;;;;;5053483;28;20041;-70
2022/02/04 18:52:36;;;;;;;1.38;0.90;;;6.50;99.90;;;;;;5054837;28;20029;-70
2022/02/04 18:55:40;;;;;;;4.25;0.95;;;6.50;99.90;;;;;;5054826;28;20025;-71
2022/02/04 18:58:01;;;;;;;1.58;1.00;;;6.50;99.90;;;;;;5054052;28;20045;-70
2022/02/04 19:00:27;;;;;;;1.10;0.80;;;6.50;99.90;;;;;;5054724;28;20505;-72
2022/02/04 19:02:54;;;;;;;1.23;0.88;;;6.50;99.90;;;;;;5054363;28;20116;-70
2022/02/04 19:05:27;;;;;;;1.55;1.20;;;6.40;99.90;;;;;;5053069;28;20025;-71
2022/02/04 19:08:06;;;;;;;3.38;1.30;;;6.40;99.90;;;;;;5053055;28;20496;-69
2022/02/04 19:10:35;;;;;;;1.88;1.10;;;6.40;99.90;;;;;;5053929;28;20079;-71
2022/02/04 19:13:07;;;;;;;6.28;4.10;;;6.40;99.90;;;;;;5052018;28;20474;-70
2022/02/04 19:15:58;;;;;;;70.70;47.42;;;6.40;99.90;;;;;;5053693;28;20021;-70
2022/02/04 19:24:01;;;;;;;30.02;21.92;;;6.30;99.90;;;;;;5053225;28;20017;-70
2022/02/04 19:26:27;;;;;;;3.95;2.40;;;6.20;99.90;;;;;;5053519;28;20420;-70
2022/02/04 19:28:53;;;;;;;2.53;1.50;;;6.20;99.90;;;;;;5052100;28;20108;-69
2022/02/04 19:31:20;;;;;;;2.28;1.33;;;6.20;99.90;;;;;;5053449;28;20025;-70
2022/02/04 19:33:46;;;;;;;1.80;1.23;;;6.20;99.90;;;;;;5052593;28;20382;-69
2022/02/04 19:36:13;;;;;;;3.53;1.02;;;6.30;99.90;;;;;;5053258;28;20025;-69
2022/02/04 19:38:39;;;;;;;1.35;1.00;;;6.30;99.90;;;;;;5052309;28;20057;-69
2022/02/04 19:41:07;;;;;;;2.85;0.93;;;6.40;99.90;;;;;;5052397;28;20129;-70
2022/02/04 19:43:34;;;;;;;1.48;1.20;;;6.40;99.90;;;;;;5056611;28;20052;-70
2022/02/04 19:46:14;;;;;;;1.77;1.10;;;6.40;99.90;;;;;;5069103;28;20024;-70
2022/02/04 19:48:45;;;;;;;1.23;0.80;;;6.40;99.90;;;;;;5051872;28;20462;-70
2022/02/04 19:51:26;;;;;;;2.35;0.95;;;6.40;99.90;;;;;;5053425;28;20063;-71